createdAt,value
2023-05-06T00:02:08.283Z,3.80
2023-05-06T00:04:35.150Z,3.45
2023-05-06T00:07:02.283Z,3.30
2023-05-06T00:09:29.015Z,3.38
2023-05-06T00:11:56.025Z,3.30
2023-05-06T00:14:22.868Z,3.70
2023-05-06T00:16:50.930Z,4.00
2023-05-06T00:19:17.761Z,4.05
2023-05-06T00:21:44.436Z,4.22
2023-05-06T00:24:11.409Z,4.07
2023-05-06T00:26:38.156Z,4.50
2023-05-06T00:29:04.914Z,4.45
2023-05-06T00:31:31.583Z,5.10
2023-05-06T00:33:58.291Z,4.85
2023-05-06T00:36:25.080Z,4.97
2023-05-06T00:38:51.756Z,5.25
2023-05-06T00:41:18.637Z,5.63
2023-05-06T00:43:45.604Z,5.15
2023-05-06T00:46:16.270Z,5.60
2023-05-06T00:48:44.502Z,5.93
2023-05-06T00:51:12.622Z,5.50
2023-05-06T00:53:40.113Z,6.43
2023-05-06T00:56:07.465Z,6.10
2023-05-06T00:58:34.996Z,6.10
2023-05-06T01:01:02.215Z,5.97
2023-05-06T01:03:29.290Z,6.30
2023-05-06T01:06:18.191Z,6.45
2023-05-06T01:08:57.505Z,6.28
2023-05-06T01:11:47.115Z,6.72
2023-05-06T01:14:26.336Z,7.10
2023-05-06T01:16:58.132Z,6.40
2023-05-06T01:19:37.147Z,6.63
2023-05-06T01:22:06.160Z,6.85
2023-05-06T01:24:37.743Z,6.28
2023-05-06T01:27:04.510Z,7.00
2023-05-06T01:29:31.944Z,6.57
2023-05-06T01:32:15.136Z,6.75
2023-05-06T01:34:52.869Z,6.72
2023-05-06T01:37:32.314Z,6.22
2023-05-06T01:40:00.667Z,6.25
2023-05-06T01:42:28.890Z,6.70
2023-05-06T01:44:57.538Z,6.70
2023-05-06T01:47:25.238Z,6.57
2023-05-06T01:49:52.433Z,6.63
2023-05-06T01:52:21.368Z,7.00
2023-05-06T01:54:48.058Z,6.80
2023-05-06T01:57:14.740Z,7.07
2023-05-06T01:59:41.413Z,6.87
2023-05-06T02:02:08.203Z,7.43
2023-05-06T02:04:34.946Z,7.55
2023-05-06T02:07:01.763Z,7.10
2023-05-06T02:09:28.422Z,7.45
2023-05-06T02:11:55.075Z,7.82
2023-05-06T02:14:21.815Z,7.80
2023-05-06T02:16:48.512Z,7.57
2023-05-06T02:19:18.002Z,7.85
2023-05-06T02:21:44.882Z,7.30
2023-05-06T02:24:11.493Z,7.68
2023-05-06T02:26:38.235Z,7.38
2023-05-06T02:29:04.916Z,7.83
2023-05-06T02:31:33.132Z,7.38
2023-05-06T02:33:59.799Z,7.53
2023-05-06T02:36:27.514Z,7.90
2023-05-06T02:38:54.278Z,8.00
2023-05-06T02:41:21.305Z,8.05
2023-05-06T02:43:48.039Z,7.30
2023-05-06T02:46:14.764Z,7.93
2023-05-06T02:48:41.998Z,8.50
2023-05-06T02:51:08.728Z,8.07
2023-05-06T02:53:35.358Z,8.55
2023-05-06T02:56:02.005Z,8.43
2023-05-06T02:58:29.175Z,8.00
2023-05-06T03:00:55.961Z,8.32
2023-05-06T03:03:22.924Z,8.13
2023-05-06T03:05:49.589Z,8.45
2023-05-06T03:08:16.741Z,7.80
2023-05-06T03:10:43.389Z,8.18
2023-05-06T03:13:10.119Z,8.20
2023-05-06T03:15:39.816Z,8.17
2023-05-06T03:18:06.481Z,8.07
2023-05-06T03:20:34.024Z,9.07
2023-05-06T03:23:00.877Z,8.57
2023-05-06T03:25:27.600Z,8.30
2023-05-06T03:27:54.235Z,8.13
2023-05-06T03:30:21.033Z,7.82
2023-05-06T03:32:48.759Z,8.55
2023-05-06T03:35:16.622Z,8.10
2023-05-06T03:37:43.300Z,7.97
2023-05-06T03:40:10.146Z,7.82
2023-05-06T03:42:36.862Z,8.25
2023-05-06T03:45:04.934Z,7.43
2023-05-06T03:47:31.798Z,7.85
2023-05-06T03:49:59.324Z,8.18
2023-05-06T03:52:26.299Z,7.40
2023-05-06T03:54:53.031Z,7.83
2023-05-06T03:57:19.700Z,8.88
2023-05-06T03:59:46.360Z,8.38
2023-05-06T04:02:13.173Z,9.10
2023-05-06T04:04:39.880Z,8.55
2023-05-06T04:07:06.734Z,8.82
2023-05-06T04:09:33.427Z,8.63
2023-05-06T04:12:00.158Z,8.25
2023-05-06T04:14:26.908Z,8.63
2023-05-06T04:16:53.893Z,8.77
2023-05-06T04:19:21.533Z,8.23
2023-05-06T04:21:48.278Z,8.40
2023-05-06T04:24:16.292Z,8.52
2023-05-06T04:26:43.056Z,8.93
2023-05-06T04:29:09.990Z,8.60
2023-05-06T04:31:36.933Z,8.33
2023-05-06T04:34:04.313Z,7.97
2023-05-06T04:36:31.012Z,8.88
2023-05-06T04:38:58.244Z,8.52
2023-05-06T04:41:25.947Z,8.70
2023-05-06T04:43:52.638Z,8.57
2023-05-06T04:46:19.506Z,8.80
2023-05-06T04:48:46.339Z,9.27
2023-05-06T04:51:13.151Z,8.52
2023-05-06T04:53:40.722Z,8.50
2023-05-06T04:56:07.954Z,8.93
2023-05-06T04:58:34.602Z,8.98
2023-05-06T05:01:04.693Z,8.60
2023-05-06T05:03:31.771Z,9.52
2023-05-06T05:05:58.569Z,9.07
2023-05-06T05:08:25.234Z,9.10
2023-05-06T05:10:51.880Z,8.75
2023-05-06T05:13:19.303Z,9.00
2023-05-06T05:15:48.834Z,8.93
2023-05-06T05:18:15.581Z,9.00
2023-05-06T05:20:42.250Z,9.43
2023-05-06T05:23:08.900Z,9.93
2023-05-06T05:25:35.629Z,9.52
2023-05-06T05:28:02.350Z,10.30
2023-05-06T05:30:29.010Z,9.55
2023-05-06T05:32:56.091Z,9.77
2023-05-06T05:35:22.833Z,10.45
2023-05-06T05:37:49.505Z,9.40
2023-05-06T05:40:16.359Z,9.25
2023-05-06T05:42:43.067Z,9.77
2023-05-06T05:45:10.382Z,9.95
2023-05-06T05:47:37.282Z,9.90
2023-05-06T05:50:04.392Z,9.10
2023-05-06T05:52:31.451Z,9.32
2023-05-06T05:54:58.080Z,8.95
2023-05-06T05:57:24.729Z,9.00
2023-05-06T05:59:51.347Z,8.70
2023-05-06T06:02:18.079Z,8.13
2023-05-06T06:04:44.772Z,9.10
2023-05-06T06:07:11.540Z,7.65
2023-05-06T06:09:38.247Z,8.02
2023-05-06T06:12:05.164Z,8.10
2023-05-06T06:14:31.782Z,7.63
2023-05-06T06:16:58.508Z,7.03
2023-05-06T06:19:25.213Z,7.03
2023-05-06T06:21:52.115Z,5.60
2023-05-06T06:24:18.754Z,5.78
2023-05-06T06:26:45.536Z,5.70
2023-05-06T06:29:12.760Z,5.35
2023-05-06T06:31:40.646Z,4.77
2023-05-06T06:34:09.005Z,4.72
2023-05-06T06:36:35.754Z,4.68
2023-05-06T06:39:02.415Z,3.75
2023-05-06T06:41:29.118Z,4.47
2023-05-06T06:43:55.854Z,5.05
2023-05-06T06:46:22.635Z,4.72
2023-05-06T06:48:49.353Z,4.97
2023-05-06T06:51:16.087Z,5.20
2023-05-06T06:53:42.571Z,4.63
2023-05-06T06:56:12.224Z,5.32
2023-05-06T06:58:39.038Z,4.55
2023-05-06T07:01:06.004Z,4.85
2023-05-06T07:03:32.793Z,5.18
2023-05-06T07:05:59.498Z,4.35
2023-05-06T07:08:26.198Z,4.80
2023-05-06T07:10:53.004Z,5.00
2023-05-06T07:13:22.935Z,4.75
2023-05-06T07:15:50.068Z,5.50
2023-05-06T07:18:16.805Z,5.00
2023-05-06T07:20:43.573Z,5.20
2023-05-06T07:23:10.251Z,5.73
2023-05-06T07:25:37.047Z,5.20
2023-05-06T07:28:03.820Z,5.40
2023-05-06T07:30:30.472Z,5.53
2023-05-06T07:32:57.218Z,5.70
2023-05-06T07:35:23.969Z,6.10
2023-05-06T07:37:50.712Z,5.93
2023-05-06T07:40:17.410Z,5.75
2023-05-06T07:42:44.207Z,5.87
2023-05-06T07:45:11.314Z,6.32
2023-05-06T07:47:38.364Z,6.38
2023-05-06T07:50:06.769Z,6.25
2023-05-06T07:52:34.109Z,6.22
2023-05-06T07:55:00.895Z,6.07
2023-05-06T07:57:27.811Z,5.90
2023-05-06T07:59:54.533Z,6.10
2023-05-06T08:02:21.312Z,5.20
2023-05-06T08:04:48.991Z,6.00
2023-05-06T08:07:17.782Z,5.50
2023-05-06T08:09:44.572Z,5.87
2023-05-06T08:12:11.302Z,4.90
2023-05-06T08:14:38.119Z,4.95
2023-05-06T08:17:04.837Z,5.53
2023-05-06T08:19:31.558Z,4.70
2023-05-06T08:21:58.207Z,4.95
2023-05-06T08:24:24.875Z,5.13
2023-05-06T08:26:51.691Z,4.47
2023-05-06T08:29:19.323Z,4.38
2023-05-06T08:31:46.833Z,3.97
2023-05-06T08:34:13.587Z,4.18
2023-05-06T08:36:40.286Z,3.42
2023-05-06T08:39:06.988Z,4.00
2023-05-06T08:41:38.174Z,3.72
2023-05-06T08:44:05.580Z,3.60
2023-05-06T08:46:32.479Z,3.67
2023-05-06T08:49:00.292Z,3.70
2023-05-06T08:51:31.740Z,3.15
2023-05-06T08:54:01.711Z,3.27
2023-05-06T08:56:32.725Z,2.90
2023-05-06T08:59:01.181Z,2.40
2023-05-06T09:01:28.755Z,1.90
2023-05-06T09:03:56.821Z,2.10
2023-05-06T09:06:24.181Z,1.90
2023-05-06T09:08:51.174Z,2.00
2023-05-06T09:11:24.668Z,2.20
2023-05-06T09:14:06.788Z,2.20
2023-05-06T09:16:33.540Z,1.80
2023-05-06T09:19:00.266Z,1.73
2023-05-06T09:21:34.268Z,2.40
2023-05-06T09:24:01.833Z,1.90
2023-05-06T09:26:32.782Z,1.90
2023-05-06T09:29:00.449Z,1.83
2023-05-06T09:31:28.391Z,1.50
2023-05-06T09:33:57.112Z,1.90
2023-05-06T09:36:30.813Z,1.70
2023-05-06T09:38:57.731Z,1.67
2023-05-06T09:41:25.634Z,1.42
2023-05-06T09:43:54.064Z,1.42
2023-05-06T09:46:22.995Z,1.30
2023-05-06T09:48:51.577Z,1.38
2023-05-06T09:51:19.136Z,1.30
2023-05-06T09:53:46.549Z,1.25
2023-05-06T09:56:14.819Z,1.10
2023-05-06T09:58:42.011Z,1.20
2023-05-06T10:01:09.265Z,1.10
2023-05-06T10:03:36.502Z,1.50
2023-05-06T10:06:05.936Z,1.13
2023-05-06T10:08:35.077Z,1.10
2023-05-06T10:11:02.116Z,1.05
2023-05-06T10:13:30.037Z,1.50
2023-05-06T10:15:57.115Z,1.70
2023-05-06T10:18:27.978Z,1.40
2023-05-06T10:20:55.695Z,1.27
2023-05-06T10:23:25.451Z,1.30
2023-05-06T10:25:56.276Z,1.17
2023-05-06T10:28:30.718Z,1.02
2023-05-06T10:30:59.489Z,0.93
2023-05-06T10:33:27.969Z,0.73
2023-05-06T10:36:07.895Z,0.80
2023-05-06T10:38:41.008Z,1.10
2023-05-06T10:41:09.572Z,1.15
2023-05-06T10:43:41.539Z,1.33
2023-05-06T10:46:11.414Z,1.20
2023-05-06T10:48:59.023Z,1.10
2023-05-06T10:51:28.210Z,1.00
2023-05-06T10:54:21.637Z,0.80
2023-05-06T10:56:48.274Z,1.05
2023-05-06T10:59:15.739Z,0.70
2023-05-06T11:01:44.752Z,1.10
2023-05-06T11:04:14.304Z,0.90
2023-05-06T11:06:44.465Z,0.98
2023-05-06T11:09:31.054Z,1.08
2023-05-06T11:12:07.149Z,1.10
2023-05-06T11:14:35.954Z,0.93
2023-05-06T11:17:08.227Z,1.30
2023-05-06T11:19:36.609Z,1.20
2023-05-06T11:22:04.629Z,1.10
2023-05-06T11:24:41.284Z,1.40
2023-05-06T11:27:09.365Z,1.53
2023-05-06T11:29:36.334Z,0.90
2023-05-06T11:32:05.300Z,1.10
2023-05-06T11:34:32.870Z,1.00
2023-05-06T11:37:02.595Z,1.10
2023-05-06T11:39:33.256Z,1.10
2023-05-06T11:42:05.733Z,1.17
2023-05-06T11:44:35.039Z,1.00
2023-05-06T11:47:05.699Z,1.00
2023-05-06T11:49:52.030Z,2.03
2023-05-06T11:52:21.443Z,1.48
2023-05-06T11:54:50.704Z,5.57
2023-05-06T11:57:17.429Z,1.77
2023-05-06T11:59:44.095Z,1.13
2023-05-06T12:02:14.171Z,1.13
2023-05-06T12:04:42.363Z,1.20
2023-05-06T12:07:10.985Z,1.13
2023-05-06T12:09:40.476Z,1.20
2023-05-06T12:12:07.808Z,1.00
2023-05-06T12:14:36.587Z,0.95
2023-05-06T12:17:04.159Z,0.80
2023-05-06T12:19:32.601Z,1.25
2023-05-06T12:22:20.779Z,0.90
2023-05-06T12:24:48.590Z,1.00
2023-05-06T12:27:28.548Z,1.10
2023-05-06T12:29:55.372Z,1.35
2023-05-06T12:32:22.200Z,0.85
2023-05-06T12:34:48.980Z,1.00
2023-05-06T12:37:31.752Z,1.15
2023-05-06T12:39:59.453Z,1.00
2023-05-06T12:42:26.777Z,0.90
2023-05-06T12:44:53.539Z,0.90
2023-05-06T12:47:22.897Z,0.95
2023-05-06T12:49:52.702Z,1.00
2023-05-06T12:52:21.548Z,1.00
2023-05-06T12:54:49.349Z,0.75
2023-05-06T12:57:16.650Z,0.75
2023-05-06T12:59:45.595Z,0.90
2023-05-06T13:02:12.964Z,1.00
2023-05-06T13:04:40.749Z,1.00
2023-05-06T13:07:07.525Z,0.90
2023-05-06T13:09:34.415Z,0.90
2023-05-06T13:12:02.371Z,0.98
2023-05-06T13:14:29.043Z,0.80
2023-05-06T13:16:55.925Z,0.90
2023-05-06T13:19:32.156Z,1.00
2023-05-06T13:22:00.529Z,0.90
2023-05-06T13:24:27.605Z,0.80
2023-05-06T13:26:56.026Z,0.88
2023-05-06T13:29:23.525Z,0.90
2023-05-06T13:31:50.969Z,0.80
2023-05-06T13:34:17.730Z,0.80
2023-05-06T13:36:44.486Z,1.00
2023-05-06T13:39:11.155Z,0.80
2023-05-06T13:41:37.908Z,0.93
2023-05-06T13:44:04.979Z,0.82
2023-05-06T13:46:31.736Z,0.95
2023-05-06T13:48:58.430Z,0.90
2023-05-06T13:51:29.854Z,1.00
2023-05-06T13:53:56.715Z,0.80
2023-05-06T13:56:23.560Z,0.90
2023-05-06T13:58:50.415Z,0.98
2023-05-06T14:01:17.176Z,1.00
2023-05-06T14:03:43.877Z,1.00
2023-05-06T14:06:11.495Z,1.00
2023-05-06T14:08:38.215Z,1.00
2023-05-06T14:11:05.166Z,0.80
2023-05-06T14:13:33.505Z,1.10
2023-05-06T14:16:00.710Z,1.00
2023-05-06T14:18:28.133Z,0.90
2023-05-06T14:20:55.272Z,0.95
2023-05-06T14:23:22.011Z,1.35
2023-05-06T14:25:49.448Z,13.32
2023-05-06T14:28:16.191Z,1.95
2023-05-06T14:30:44.424Z,0.95
2023-05-06T14:33:11.549Z,1.02
2023-05-06T14:35:42.436Z,1.03
2023-05-06T14:38:10.270Z,1.05
2023-05-06T14:40:38.678Z,1.20
2023-05-06T14:43:07.238Z,1.00
2023-05-06T14:45:34.006Z,1.02
2023-05-06T14:48:00.837Z,0.80
2023-05-06T14:50:27.512Z,0.90
2023-05-06T14:52:54.256Z,0.93
2023-05-06T14:55:21.084Z,0.90
2023-05-06T14:57:48.041Z,0.87
2023-05-06T15:00:16.173Z,1.00
2023-05-06T15:02:42.920Z,0.90
2023-05-06T15:05:10.752Z,0.80
2023-05-06T15:07:37.856Z,1.00
2023-05-06T15:10:05.121Z,0.93
2023-05-06T15:12:31.902Z,1.10
2023-05-06T15:14:58.658Z,1.00
2023-05-06T15:17:25.541Z,1.00
2023-05-06T15:19:52.333Z,1.00
2023-05-06T15:22:18.987Z,1.00
2023-05-06T15:24:45.675Z,1.02
2023-05-06T15:27:12.363Z,0.90
2023-05-06T15:29:38.860Z,0.85
2023-05-06T15:32:06.079Z,0.90
2023-05-06T15:34:33.031Z,0.98
2023-05-06T15:37:01.816Z,1.45
2023-05-06T15:39:28.608Z,1.00
2023-05-06T15:41:58.105Z,3.03
2023-05-06T15:46:53.319Z,1.00
2023-05-06T15:49:48.851Z,1.03
2023-05-06T15:52:06.691Z,1.00
2023-05-06T15:54:36.218Z,1.10
2023-05-06T15:57:07.141Z,1.13
2023-05-06T15:59:34.154Z,0.90
2023-05-06T16:02:26.452Z,0.80
2023-05-06T16:04:47.820Z,1.00
2023-05-06T16:07:15.494Z,0.90
2023-05-06T16:09:42.923Z,0.83
2023-05-06T16:12:09.986Z,0.90
2023-05-06T16:14:36.714Z,1.20
2023-05-06T16:17:03.449Z,1.13
2023-05-06T16:19:32.133Z,1.05
2023-05-06T16:21:58.835Z,1.10
2023-05-06T16:24:25.566Z,1.33
2023-05-06T16:26:52.312Z,2.22
2023-05-06T16:29:20.646Z,1.40
2023-05-06T16:31:48.553Z,1.08
2023-05-06T16:34:15.403Z,0.85
2023-05-06T16:36:42.147Z,0.90
2023-05-06T16:39:08.867Z,1.00
2023-05-06T16:41:35.566Z,0.90
2023-05-06T16:44:02.233Z,1.30
2023-05-06T16:46:28.986Z,1.40
2023-05-06T16:48:55.886Z,1.00
2023-05-06T16:51:22.761Z,0.90
2023-05-06T16:53:49.487Z,1.00
2023-05-06T16:56:16.198Z,1.17
2023-05-06T16:58:42.992Z,0.90
2023-05-06T17:01:09.892Z,1.90
2023-05-06T17:03:37.784Z,3.15
2023-05-06T17:06:05.078Z,1.90
2023-05-06T17:08:36.139Z,5.00
2023-05-06T17:11:06.652Z,2.50
2023-05-06T17:13:33.914Z,1.30
2023-05-06T17:16:00.804Z,1.15
2023-05-06T17:18:27.580Z,1.10
2023-05-06T17:20:57.046Z,4.65
2023-05-06T17:23:24.368Z,2.00
2023-05-06T17:25:51.585Z,1.97
2023-05-06T17:28:19.007Z,1.75
2023-05-06T17:30:46.511Z,1.83
2023-05-06T17:33:13.240Z,1.30
2023-05-06T17:35:40.054Z,1.00
2023-05-06T17:38:06.795Z,2.20
2023-05-06T17:40:33.623Z,1.40
2023-05-06T17:43:00.595Z,2.10
2023-05-06T17:45:30.243Z,3.25
2023-05-06T17:47:56.945Z,3.40
2023-05-06T17:50:23.922Z,3.07
2023-05-06T17:52:52.638Z,2.65
2023-05-06T17:55:21.502Z,2.30
2023-05-06T17:57:49.182Z,2.47
2023-05-06T18:00:16.884Z,1.80
2023-05-06T18:02:44.587Z,1.52
2023-05-06T18:05:11.915Z,1.77
2023-05-06T18:07:39.141Z,1.30
2023-05-06T18:10:06.680Z,1.40
2023-05-06T18:12:33.435Z,1.02
2023-05-06T18:15:00.591Z,1.50
2023-05-06T18:17:27.407Z,1.43
2023-05-06T18:19:54.158Z,1.27
2023-05-06T18:22:20.837Z,1.13
2023-05-06T18:24:47.560Z,1.30
2023-05-06T18:27:14.201Z,1.17
2023-05-06T18:29:41.346Z,1.10
2023-05-06T18:32:08.388Z,1.50
2023-05-06T18:34:35.459Z,1.38
2023-05-06T18:37:02.258Z,1.47
2023-05-06T18:39:28.914Z,1.75
2023-05-06T18:41:55.664Z,1.70
2023-05-06T18:44:22.341Z,1.40
2023-05-06T18:46:49.036Z,1.60
2023-05-06T18:49:15.714Z,2.92
2023-05-06T18:51:42.398Z,2.60
2023-05-06T18:54:09.185Z,1.40
2023-05-06T18:56:36.935Z,1.70
2023-05-06T18:59:03.767Z,1.40
2023-05-06T19:01:30.627Z,1.57
2023-05-06T19:03:57.487Z,1.88
2023-05-06T19:06:24.172Z,11.90
2023-05-06T19:08:50.866Z,5.80
2023-05-06T19:11:19.330Z,3.08
2023-05-06T19:13:46.421Z,2.20
2023-05-06T19:16:13.831Z,2.00
2023-05-06T19:18:40.671Z,2.90
2023-05-06T19:21:10.825Z,2.30
2023-05-06T19:23:37.689Z,1.67
2023-05-06T19:26:06.766Z,1.40
2023-05-06T19:28:34.366Z,2.58
2023-05-06T19:31:01.532Z,1.90
2023-05-06T19:33:28.542Z,3.10
2023-05-06T19:35:55.232Z,3.83
2023-05-06T19:38:21.973Z,2.80
2023-05-06T19:40:48.683Z,8.02
2023-05-06T19:43:17.643Z,7.47
2023-05-06T19:45:44.282Z,5.70
2023-05-06T19:48:12.767Z,2.30
2023-05-06T19:50:39.480Z,2.88
2023-05-06T19:53:06.116Z,2.85
2023-05-06T19:55:32.824Z,2.40
2023-05-06T19:57:59.835Z,1.80
2023-05-06T20:00:28.105Z,2.08
2023-05-06T20:02:57.235Z,5.57
2023-05-06T20:05:24.847Z,2.80
2023-05-06T20:07:51.599Z,3.33
2023-05-06T20:10:18.338Z,3.80
2023-05-06T20:12:45.357Z,3.15
2023-05-06T20:15:12.476Z,3.20
2023-05-06T20:17:39.485Z,2.50
2023-05-06T20:20:10.816Z,2.20
2023-05-06T20:22:38.871Z,2.13
2023-05-06T20:25:11.434Z,2.33
2023-05-06T20:27:39.098Z,2.20
2023-05-06T20:30:07.973Z,2.70
2023-05-06T20:32:35.462Z,1.90
2023-05-06T20:35:02.252Z,2.70
2023-05-06T20:37:30.514Z,2.60
2023-05-06T20:39:57.906Z,2.53
2023-05-06T20:42:24.930Z,2.85
2023-05-06T20:44:52.092Z,3.15
2023-05-06T20:47:19.514Z,3.13
2023-05-06T20:49:46.386Z,2.95
2023-05-06T20:52:14.602Z,3.25
2023-05-06T20:54:43.969Z,3.40
2023-05-06T20:57:11.708Z,3.63
2023-05-06T20:59:38.468Z,4.03
2023-05-06T21:02:05.526Z,3.85
2023-05-06T21:04:32.470Z,3.83
2023-05-06T21:06:59.729Z,4.78
2023-05-06T21:09:27.895Z,4.35
2023-05-06T21:11:56.040Z,3.53
2023-05-06T21:14:24.783Z,3.37
2023-05-06T21:16:52.152Z,3.78
2023-05-06T21:19:19.420Z,5.38
2023-05-06T21:21:46.254Z,8.18
2023-05-06T21:24:13.142Z,6.50
2023-05-06T21:26:39.891Z,3.38
2023-05-06T21:29:06.588Z,3.42
2023-05-06T21:31:33.491Z,3.07
2023-05-06T21:34:00.318Z,3.88
2023-05-06T21:36:27.202Z,3.27
2023-05-06T21:39:06.856Z,2.75
2023-05-06T21:41:35.629Z,2.72
2023-05-06T21:44:04.290Z,3.47
2023-05-06T21:46:31.901Z,3.42
2023-05-06T21:48:59.462Z,3.38
2023-05-06T21:51:28.279Z,3.13
2023-05-06T21:53:55.246Z,3.55
2023-05-06T21:56:22.194Z,3.75
2023-05-06T21:58:49.092Z,3.53
2023-05-06T22:01:16.113Z,3.33
2023-05-06T22:03:43.722Z,3.10
2023-05-06T22:06:10.686Z,3.10
2023-05-06T22:08:37.324Z,2.97
2023-05-06T22:11:04.230Z,2.87
2023-05-06T22:13:30.916Z,2.60
2023-05-06T22:15:57.814Z,3.15
2023-05-06T22:18:25.640Z,3.00
2023-05-06T22:20:56.663Z,2.95
2023-05-06T22:23:24.390Z,2.80
2023-05-06T22:25:52.610Z,2.70
2023-05-06T22:28:19.781Z,3.00
2023-05-06T22:30:46.610Z,2.70
2023-05-06T22:33:13.388Z,2.78
2023-05-06T22:35:40.307Z,2.80
2023-05-06T22:38:08.055Z,2.50
2023-05-06T22:40:34.736Z,2.72
2023-05-06T22:43:01.424Z,2.53
2023-05-06T22:45:28.159Z,3.67
2023-05-06T22:47:54.914Z,3.05
2023-05-06T22:50:21.631Z,3.08
2023-05-06T22:52:48.282Z,3.13
2023-05-06T22:55:15.967Z,3.17
2023-05-06T22:57:42.693Z,2.80
2023-05-06T23:00:12.300Z,2.90
2023-05-06T23:02:39.082Z,2.50
2023-05-06T23:05:06.511Z,3.83
2023-05-06T23:07:33.321Z,3.50
2023-05-06T23:10:00.085Z,2.72
2023-05-06T23:12:28.049Z,2.33
2023-05-06T23:14:54.583Z,2.60
2023-05-06T23:17:21.354Z,3.10
2023-05-06T23:19:48.073Z,2.78
2023-05-06T23:22:14.728Z,2.70
2023-05-06T23:24:42.178Z,2.80
2023-05-06T23:27:09.014Z,2.65
2023-05-06T23:29:35.728Z,2.67
2023-05-06T23:32:02.949Z,2.55
2023-05-06T23:34:29.605Z,2.75
2023-05-06T23:36:56.571Z,2.40
2023-05-06T23:39:23.344Z,3.00
2023-05-06T23:41:49.995Z,2.60
2023-05-06T23:44:16.780Z,2.70
2023-05-06T23:46:43.923Z,2.90
2023-05-06T23:49:10.613Z,3.10
2023-05-06T23:51:37.308Z,3.05
2023-05-06T23:54:04.133Z,2.80
2023-05-06T23:56:30.776Z,2.75
2023-05-06T23:58:57.425Z,2.65
